Time;durP1;ratioP1;P1;durP2;ratioP2;P2;SDS_P1;SDS_P2;PMS_P1;PMS_P2;Temp;Humidity;BMP_temperature;BMP_pressure;BME280_temperature;BME280_humidity;BME280_pressure;Samples;Min_cycle;Max_cycle;Signal;HPM_P1;HPM_P2
2022/05/08 00:00:16;;;;;;;17.83;5.13;;;8.80;99.90;;;;;;4985362;28;20045;-73
2022/05/08 00:02:42;;;;;;;17.40;5.43;;;8.80;99.90;;;;;;4971493;28;20045;-73
2022/05/08 00:05:08;;;;;;;14.95;4.47;;;8.80;99.90;;;;;;4955765;28;20045;-73
2022/05/08 00:07:35;;;;;;;18.50;5.65;;;8.80;99.90;;;;;;4985190;28;20041;-73
2022/05/08 00:10:01;;;;;;;19.67;5.63;;;8.80;99.90;;;;;;4984638;28;20065;-73
2022/05/08 00:12:27;;;;;;;18.13;5.38;;;8.80;99.90;;;;;;4968644;28;20112;-73
2022/05/08 00:14:52;;;;;;;17.88;5.38;;;8.70;99.90;;;;;;4951345;28;20054;-73
2022/05/08 00:17:18;;;;;;;25.73;6.82;;;8.60;99.90;;;;;;4967745;28;20045;-74
2022/05/08 00:19:47;;;;;;;16.85;5.05;;;8.60;99.90;;;;;;4944291;28;20038;-74
2022/05/08 00:22:14;;;;;;;17.50;4.85;;;8.60;99.90;;;;;;4967221;28;20518;-74
2022/05/08 00:24:40;;;;;;;21.60;6.07;;;8.60;99.90;;;;;;4973395;28;20110;-74
2022/05/08 00:27:06;;;;;;;23.55;6.88;;;8.60;99.90;;;;;;4964983;28;20041;-74
2022/05/08 00:29:32;;;;;;;17.75;5.35;;;8.60;99.90;;;;;;4983279;28;20038;-74
2022/05/08 00:31:59;;;;;;;18.65;5.28;;;8.50;99.90;;;;;;4989001;28;20061;-74
2022/05/08 00:34:25;;;;;;;28.25;6.38;;;8.50;99.90;;;;;;4979850;28;20052;-74
2022/05/08 00:36:51;;;;;;;22.35;6.13;;;8.40;99.90;;;;;;4972125;28;20455;-74
2022/05/08 00:39:18;;;;;;;16.83;5.40;;;8.40;99.90;;;;;;4984423;28;20108;-74
2022/05/08 00:41:48;;;;;;;19.55;6.00;;;8.40;99.90;;;;;;4952509;28;20030;-74
2022/05/08 00:44:13;;;;;;;14.45;4.80;;;8.40;99.90;;;;;;4965259;28;20077;-74
2022/05/08 00:46:40;;;;;;;20.85;5.93;;;8.40;99.90;;;;;;4961048;28;20217;-74
2022/05/08 00:49:06;;;;;;;16.15;5.53;;;8.40;99.90;;;;;;4972010;28;20053;-74
2022/05/08 00:51:34;;;;;;;22.85;5.82;;;8.40;99.90;;;;;;4986534;28;20071;-74
2022/05/08 00:54:03;;;;;;;19.17;5.43;;;8.40;99.90;;;;;;4970780;28;20054;-74
2022/05/08 00:56:29;;;;;;;18.13;5.55;;;8.30;99.90;;;;;;4961479;28;20405;-74
2022/05/08 00:58:55;;;;;;;22.77;5.95;;;8.30;99.90;;;;;;4966773;28;20104;-79
2022/05/08 01:01:22;;;;;;;18.50;5.70;;;8.20;99.90;;;;;;4982154;28;20041;-79
2022/05/08 01:03:48;;;;;;;23.48;6.32;;;8.20;99.90;;;;;;4971991;28;20489;-74
2022/05/08 01:06:18;;;;;;;23.15;6.38;;;8.20;99.90;;;;;;4964251;28;20048;-74
2022/05/08 01:08:54;;;;;;;21.33;6.30;;;8.20;99.90;;;;;;4943275;28;20042;-74
2022/05/08 01:11:21;;;;;;;17.67;6.10;;;8.10;99.90;;;;;;4984233;28;20111;-74
2022/05/08 01:13:47;;;;;;;20.55;5.88;;;8.10;99.90;;;;;;4986908;28;20054;-74
2022/05/08 01:16:15;;;;;;;16.17;5.38;;;8.10;99.90;;;;;;4979231;28;20038;-74
2022/05/08 01:18:44;;;;;;;17.38;5.55;;;8.00;99.90;;;;;;4979455;28;20046;-73
2022/05/08 01:21:13;;;;;;;19.65;6.00;;;8.00;99.90;;;;;;4944800;28;20522;-73
2022/05/08 01:23:40;;;;;;;20.20;5.95;;;8.00;99.90;;;;;;4981692;28;20037;-73
2022/05/08 01:26:06;;;;;;;21.23;6.28;;;7.90;99.90;;;;;;4968237;28;20835;-73
2022/05/08 01:28:32;;;;;;;16.73;5.15;;;7.90;99.90;;;;;;4968597;28;20124;-73
2022/05/08 01:30:58;;;;;;;15.75;4.57;;;7.90;99.90;;;;;;4959874;28;20080;-73
2022/05/08 01:33:25;;;;;;;18.50;5.82;;;7.90;99.90;;;;;;4981228;28;20041;-73
2022/05/08 01:35:51;;;;;;;15.80;5.70;;;7.90;99.90;;;;;;4967767;28;20054;-73
2022/05/08 01:38:19;;;;;;;18.85;6.28;;;7.80;99.90;;;;;;4949229;28;20144;-73
2022/05/08 01:40:46;;;;;;;16.17;5.25;;;7.80;99.90;;;;;;4956778;28;20520;-73
2022/05/08 01:43:12;;;;;;;18.42;5.43;;;7.70;99.90;;;;;;4969119;28;20050;-73
2022/05/08 01:45:39;;;;;;;20.65;6.10;;;7.60;99.90;;;;;;4985421;28;20041;-73
2022/05/08 01:48:27;;;;;;;17.30;5.25;;;7.60;99.90;;;;;;4965027;28;20044;-73
2022/05/08 01:50:55;;;;;;;25.85;6.75;;;7.40;99.90;;;;;;4976841;28;20158;-73
2022/05/08 01:53:23;;;;;;;16.13;5.55;;;7.40;99.90;;;;;;4974800;28;20049;-73
2022/05/08 01:55:54;;;;;;;19.17;6.13;;;7.40;99.90;;;;;;4961983;28;20050;-73
2022/05/08 01:58:24;;;;;;;;;;;7.40;99.90;;;;;;4982202;28;20089;-73
2022/05/08 02:00:50;;;;;;;16.67;5.13;;;7.30;99.90;;;;;;4959886;28;20355;-73
2022/05/08 02:03:18;;;;;;;15.35;5.43;;;7.20;99.90;;;;;;4958049;28;20045;-73
2022/05/08 02:05:44;;;;;;;16.67;5.28;;;7.20;99.90;;;;;;4975165;28;20038;-73
2022/05/08 02:08:14;;;;;;;16.58;5.47;;;7.20;99.90;;;;;;4957083;28;20147;-73
2022/05/08 02:10:40;;;;;;;14.10;5.38;;;7.10;99.90;;;;;;4965327;28;20153;-73
2022/05/08 02:13:07;;;;;;;21.23;7.10;;;7.10;99.90;;;;;;4969675;28;20077;-73
2022/05/08 02:15:33;;;;;;;21.60;7.57;;;7.00;99.90;;;;;;4943354;28;20119;-73
2022/05/08 02:18:04;;;;;;;14.98;6.00;;;7.00;99.90;;;;;;4968058;28;20104;-73
2022/05/08 02:20:31;;;;;;;22.65;7.22;;;6.90;99.90;;;;;;4969544;28;20117;-73
2022/05/08 02:22:57;;;;;;;26.65;7.78;;;6.90;99.90;;;;;;4977344;28;20050;-73
2022/05/08 02:25:23;;;;;;;17.85;5.82;;;6.80;99.90;;;;;;4959193;28;20038;-73
2022/05/08 02:27:51;;;;;;;19.65;6.00;;;6.80;99.90;;;;;;4979905;28;20117;-73
2022/05/08 02:30:18;;;;;;;20.30;6.88;;;6.70;99.90;;;;;;4980896;28;20137;-73
2022/05/08 02:32:44;;;;;;;15.75;5.68;;;6.60;99.90;;;;;;4961250;28;20073;-73
2022/05/08 02:35:10;;;;;;;22.27;8.00;;;6.60;99.90;;;;;;4962344;28;21071;-73
2022/05/08 02:37:37;;;;;;;20.02;7.05;;;6.60;99.90;;;;;;4955844;28;20045;-73
2022/05/08 02:40:05;;;;;;;15.48;5.72;;;6.50;99.90;;;;;;4981772;28;20694;-73
2022/05/08 02:42:31;;;;;;;17.80;6.60;;;6.50;99.90;;;;;;4968867;28;20128;-73
2022/05/08 02:44:57;;;;;;;16.33;6.07;;;6.40;99.90;;;;;;4984174;28;20212;-73
2022/05/08 02:47:22;;;;;;;15.93;5.97;;;6.40;99.90;;;;;;4957033;28;20589;-73
2022/05/08 02:49:48;;;;;;;12.93;5.88;;;6.40;99.90;;;;;;4943413;28;20046;-73
2022/05/08 02:52:14;;;;;;;14.38;5.80;;;6.40;99.90;;;;;;4940284;28;21585;-73
2022/05/08 02:54:40;;;;;;;15.50;6.10;;;6.30;99.90;;;;;;4975000;28;20042;-73
2022/05/08 02:59:51;;;;;;;18.25;6.22;;;6.20;99.90;;;;;;4964760;28;20762;-73
2022/05/08 03:02:17;;;;;;;16.90;5.88;;;6.20;99.90;;;;;;4964687;28;20133;-73
2022/05/08 03:04:43;;;;;;;19.17;6.22;;;6.10;99.90;;;;;;4940924;28;20133;-73
2022/05/08 03:07:08;;;;;;;21.48;7.75;;;6.10;99.90;;;;;;4965139;28;20056;-73
2022/05/08 03:09:34;;;;;;;22.40;6.70;;;6.00;99.90;;;;;;4964888;28;20050;-73
2022/05/08 03:12:00;;;;;;;17.85;6.35;;;6.00;99.90;;;;;;4983914;28;20054;-73
2022/05/08 03:14:26;;;;;;;15.25;6.20;;;5.90;99.90;;;;;;4951949;28;20050;-73
2022/05/08 03:16:52;;;;;;;13.98;5.78;;;5.80;99.90;;;;;;4962800;28;20076;-73
2022/05/08 03:19:19;;;;;;;21.65;7.55;;;5.80;99.90;;;;;;4968879;28;20050;-74
2022/05/08 03:21:48;;;;;;;26.40;8.40;;;5.80;99.90;;;;;;4976906;28;20341;-73
2022/05/08 03:24:14;;;;;;;19.20;6.85;;;5.80;99.90;;;;;;4964463;28;20053;-73
2022/05/08 03:26:40;;;;;;;16.25;7.25;;;5.70;99.90;;;;;;4963866;28;20038;-73
2022/05/08 03:29:07;;;;;;;13.93;5.63;;;5.70;99.90;;;;;;4964594;28;20668;-73
2022/05/08 03:31:37;;;;;;;17.55;6.30;;;5.70;99.90;;;;;;4948930;28;20425;-73
2022/05/08 03:34:03;;;;;;;14.10;5.50;;;5.70;99.90;;;;;;4982221;28;20056;-73
2022/05/08 03:36:29;;;;;;;21.98;7.55;;;5.70;99.90;;;;;;4964314;28;20034;-73
2022/05/08 03:38:54;;;;;;;16.48;5.78;;;5.60;99.90;;;;;;4974108;28;20050;-73
2022/05/08 03:41:20;;;;;;;21.77;7.10;;;5.60;99.90;;;;;;4965567;28;20169;-73
2022/05/08 03:43:46;;;;;;;14.20;5.93;;;5.60;99.90;;;;;;4962442;28;20065;-73
2022/05/08 03:46:13;;;;;;;24.40;8.68;;;5.50;99.90;;;;;;4980414;28;20066;-75
2022/05/08 03:48:39;;;;;;;22.38;8.02;;;5.50;99.90;;;;;;4978198;28;20050;-73
2022/05/08 03:51:05;;;;;;;18.60;7.53;;;5.40;99.90;;;;;;4963491;28;20053;-73
2022/05/08 03:53:31;;;;;;;17.95;6.75;;;5.30;99.90;;;;;;4967119;28;20053;-73
2022/05/08 03:55:57;;;;;;;19.77;7.13;;;5.30;99.90;;;;;;4931177;28;20050;-73
2022/05/08 03:58:23;;;;;;;21.40;9.35;;;5.30;99.90;;;;;;4969556;28;20045;-73
2022/05/08 04:00:49;;;;;;;16.38;7.20;;;5.30;99.90;;;;;;4978673;28;20446;-73
2022/05/08 04:03:15;;;;;;;12.20;6.20;;;5.20;99.90;;;;;;4983085;28;20081;-73
2022/05/08 04:05:41;;;;;;;14.07;6.97;;;5.20;99.90;;;;;;4967858;28;20156;-73
2022/05/08 04:08:07;;;;;;;19.10;7.55;;;5.20;99.90;;;;;;4967995;28;20145;-73
2022/05/08 04:10:33;;;;;;;14.95;6.07;;;5.30;99.90;;;;;;4955983;28;20054;-73
2022/05/08 04:12:59;;;;;;;17.70;7.30;;;5.30;99.90;;;;;;4932877;28;20742;-73
2022/05/08 04:18:09;;;;;;;14.82;6.40;;;5.20;99.90;;;;;;4964484;28;20658;-73
2022/05/08 04:20:36;;;;;;;18.02;7.63;;;5.20;99.90;;;;;;4949066;28;20124;-73
2022/05/08 04:25:50;;;;;;;20.23;8.32;;;5.20;99.90;;;;;;4964430;28;20050;-73
2022/05/08 04:28:18;;;;;;;17.42;6.47;;;5.20;99.90;;;;;;4973808;28;20041;-73
2022/05/08 04:30:44;;;;;;;16.98;7.78;;;5.20;99.90;;;;;;4951473;28;20038;-73
2022/05/08 04:33:10;;;;;;;20.05;8.52;;;5.30;99.90;;;;;;4950842;28;20543;-73
2022/05/08 04:35:35;;;;;;;23.60;9.40;;;5.30;99.90;;;;;;4983485;28;20042;-73
2022/05/08 04:38:01;;;;;;;16.52;8.90;;;5.40;99.90;;;;;;4982244;28;20060;-73
2022/05/08 04:40:27;;;;;;;18.30;7.78;;;5.30;99.90;;;;;;4982574;28;20096;-73
2022/05/08 04:42:52;;;;;;;19.95;8.68;;;5.30;99.90;;;;;;4969220;28;20405;-73
2022/05/08 04:45:18;;;;;;;15.93;7.35;;;5.40;99.90;;;;;;4970691;28;20379;-73
2022/05/08 04:47:44;;;;;;;21.55;7.82;;;5.40;99.90;;;;;;4986545;28;20054;-73
2022/05/08 04:50:10;;;;;;;18.13;8.30;;;5.50;99.90;;;;;;4986387;28;20346;-73
2022/05/08 04:52:35;;;;;;;18.17;8.20;;;5.60;99.90;;;;;;4986845;28;20058;-73
2022/05/08 04:55:03;;;;;;;21.98;9.25;;;5.60;99.90;;;;;;4969610;28;20111;-73
2022/05/08 04:57:30;;;;;;;19.88;7.90;;;5.60;99.90;;;;;;4986844;28;20085;-73
2022/05/08 04:59:56;;;;;;;17.95;8.93;;;5.70;99.90;;;;;;4985877;28;20488;-73
2022/05/08 05:02:23;;;;;;;18.63;7.85;;;5.80;99.90;;;;;;4985501;28;20042;-72
2022/05/08 05:04:48;;;;;;;22.17;8.93;;;5.80;99.90;;;;;;4986331;28;20511;-73
2022/05/08 05:07:14;;;;;;;18.58;7.55;;;5.90;99.90;;;;;;4953592;28;20046;-73
2022/05/08 05:09:40;;;;;;;16.63;7.35;;;6.00;99.90;;;;;;4964390;28;20581;-73
2022/05/08 05:12:06;;;;;;;17.20;7.55;;;6.00;99.90;;;;;;4950566;28;20463;-73
2022/05/08 05:14:32;;;;;;;19.98;7.88;;;6.10;99.90;;;;;;4935799;28;20039;-73
2022/05/08 05:17:00;;;;;;;16.02;6.63;;;6.30;99.90;;;;;;4966808;28;20555;-73
2022/05/08 05:19:29;;;;;;;16.63;6.78;;;6.40;99.90;;;;;;4951908;28;20052;-73
2022/05/08 05:21:55;;;;;;;17.17;6.38;;;6.40;99.90;;;;;;4973891;28;20052;-73
2022/05/08 05:24:21;;;;;;;19.05;7.55;;;6.50;99.90;;;;;;4985641;28;20085;-73
2022/05/08 05:26:47;;;;;;;15.73;6.13;;;6.70;99.90;;;;;;4970054;28;20048;-74
2022/05/08 05:29:14;;;;;;;14.05;5.75;;;6.70;99.90;;;;;;4967593;28;20428;-73
2022/05/08 05:31:41;;;;;;;15.23;6.60;;;6.80;99.90;;;;;;4953591;28;20061;-74
2022/05/08 05:34:06;;;;;;;15.35;6.72;;;6.90;99.90;;;;;;4985184;28;20228;-73
2022/05/08 05:36:32;;;;;;;17.60;6.32;;;7.00;99.90;;;;;;4964452;28;20464;-73
2022/05/08 05:38:58;;;;;;;16.40;5.63;;;7.00;99.90;;;;;;4966189;28;20044;-73
2022/05/08 05:41:23;;;;;;;14.75;5.60;;;7.20;99.90;;;;;;4984233;28;20073;-73
2022/05/08 05:43:49;;;;;;;12.93;4.90;;;7.30;99.90;;;;;;4984555;28;20061;-73
2022/05/08 05:48:59;;;;;;;15.05;5.10;;;7.50;99.90;;;;;;4978776;28;20061;-74
2022/05/08 05:51:25;;;;;;;15.68;6.07;;;7.60;99.90;;;;;;4968222;28;20145;-74
2022/05/08 05:53:54;;;;;;;11.32;4.25;;;7.60;99.90;;;;;;4968008;28;20054;-73
2022/05/08 05:56:20;;;;;;;13.18;4.72;;;7.80;99.90;;;;;;4946308;28;20046;-73
2022/05/08 05:58:49;;;;;;;14.30;4.10;;;7.80;99.90;;;;;;4949455;28;20501;-73
2022/05/08 06:01:16;;;;;;;11.43;4.30;;;7.90;99.90;;;;;;4964482;28;20464;-74
2022/05/08 06:03:45;;;;;;;14.98;4.72;;;8.00;99.90;;;;;;4951382;28;20042;-73
2022/05/08 06:06:12;;;;;;;10.25;4.20;;;8.10;99.90;;;;;;4965669;28;20034;-74
2022/05/08 06:08:38;;;;;;;11.45;3.92;;;8.20;99.90;;;;;;4978833;28;20042;-74
2022/05/08 06:11:04;;;;;;;12.50;4.50;;;8.30;99.90;;;;;;4965071;28;20104;-74
2022/05/08 06:13:30;;;;;;;10.73;3.10;;;8.40;99.90;;;;;;4967830;28;20121;-74
2022/05/08 06:15:56;;;;;;;9.63;3.40;;;8.50;99.90;;;;;;4967126;28;20128;-74
2022/05/08 06:18:22;;;;;;;12.15;3.00;;;8.60;99.90;;;;;;4963810;28;20056;-74
2022/05/08 06:20:48;;;;;;;11.23;2.58;;;8.80;99.90;;;;;;4979550;28;20116;-73
2022/05/08 06:23:14;;;;;;;12.60;2.60;;;8.90;99.90;;;;;;4931300;28;20096;-74
2022/05/08 06:25:41;;;;;;;12.70;2.63;;;9.10;99.90;;;;;;4981258;28;20436;-73
2022/05/08 06:28:08;;;;;;;10.95;2.70;;;9.20;99.90;;;;;;4961343;28;20113;-73
2022/05/08 06:30:34;;;;;;;8.20;2.25;;;9.30;99.90;;;;;;4947292;28;20054;-74
2022/05/08 06:33:00;;;;;;;9.70;2.13;;;9.40;99.90;;;;;;4965782;28;20079;-74
2022/05/08 06:35:26;;;;;;;8.55;2.20;;;9.50;99.90;;;;;;4983395;28;20042;-73
2022/05/08 06:37:52;;;;;;;9.55;2.10;;;9.70;99.90;;;;;;4970991;28;20078;-74
2022/05/08 06:40:18;;;;;;;8.80;2.20;;;9.80;99.90;;;;;;4958248;28;20053;-74
2022/05/08 06:42:44;;;;;;;8.07;2.22;;;9.80;99.90;;;;;;4961165;28;20129;-74
2022/05/08 06:45:10;;;;;;;8.43;2.10;;;9.90;99.90;;;;;;4971443;28;20050;-74
2022/05/08 06:47:35;;;;;;;10.45;2.67;;;10.00;99.90;;;;;;4944600;28;20069;-74
2022/05/08 06:50:01;;;;;;;11.73;2.53;;;10.10;99.90;;;;;;4949756;28;20050;-75
2022/05/08 06:52:27;;;;;;;8.48;1.70;;;10.30;99.90;;;;;;4951014;28;20133;-74
2022/05/08 06:54:53;;;;;;;9.25;1.70;;;10.30;99.90;;;;;;4964827;28;20136;-77
2022/05/08 06:57:19;;;;;;;7.43;2.03;;;10.30;99.90;;;;;;4959131;28;20128;-74
2022/05/08 07:02:28;;;;;;;8.23;2.13;;;10.40;99.90;;;;;;4964825;28;20295;-73
2022/05/08 07:04:54;;;;;;;6.68;2.20;;;10.60;99.90;;;;;;4947083;28;20042;-72
2022/05/08 07:07:23;;;;;;;10.95;2.85;;;10.60;99.90;;;;;;4931479;28;20046;-74
2022/05/08 07:09:51;;;;;;;8.68;2.42;;;10.60;99.90;;;;;;4980817;28;20104;-74
2022/05/08 07:12:17;;;;;;;8.73;1.85;;;10.60;99.90;;;;;;4977690;28;20432;-73
2022/05/08 07:14:42;;;;;;;8.65;1.80;;;10.70;99.90;;;;;;4982652;28;20049;-72
2022/05/08 07:17:10;;;;;;;9.23;2.63;;;10.60;99.90;;;;;;4979926;28;20449;-75
2022/05/08 07:19:35;;;;;;;6.75;1.98;;;10.70;99.90;;;;;;4966976;28;20141;-73
2022/05/08 07:22:01;;;;;;;10.50;1.95;;;10.80;99.90;;;;;;4965360;28;20280;-73
2022/05/08 07:24:27;;;;;;;10.20;2.33;;;10.90;99.90;;;;;;4966856;28;20411;-74
2022/05/08 07:26:53;;;;;;;11.55;2.78;;;11.00;99.90;;;;;;4939396;28;20511;-74
2022/05/08 07:29:19;;;;;;;8.25;2.45;;;11.00;99.90;;;;;;4932126;28;20050;-76
2022/05/08 07:31:44;;;;;;;8.68;1.70;;;11.10;99.90;;;;;;4962679;28;20046;-74
2022/05/08 07:36:55;;;;;;;7.18;1.90;;;11.30;99.90;;;;;;4973732;28;20504;-75
2022/05/08 07:39:21;;;;;;;9.05;2.28;;;11.20;99.90;;;;;;4958209;28;20038;-76
2022/05/08 07:41:47;;;;;;;11.52;2.10;;;11.20;99.90;;;;;;4982092;28;20042;-75
2022/05/08 07:44:13;;;;;;;8.73;2.05;;;11.20;99.90;;;;;;4965881;28;20045;-75
2022/05/08 07:46:39;;;;;;;10.40;2.65;;;11.20;99.90;;;;;;4961858;28;20074;-74
2022/05/08 07:49:05;;;;;;;14.00;3.08;;;11.30;99.90;;;;;;4976740;28;20537;-74
2022/05/08 07:51:31;;;;;;;8.13;1.98;;;11.40;99.90;;;;;;4981075;28;20046;-75
2022/05/08 07:53:58;;;;;;;9.30;2.03;;;11.60;99.90;;;;;;4972286;28;20049;-74
2022/05/08 07:56:24;;;;;;;10.57;2.25;;;11.80;99.90;;;;;;4982426;28;20046;-74
2022/05/08 07:58:50;;;;;;;7.78;2.00;;;11.80;99.90;;;;;;4962345;28;20105;-74
2022/05/08 08:01:18;;;;;;;11.32;2.15;;;11.90;99.90;;;;;;4931836;28;20635;-75
2022/05/08 08:03:44;;;;;;;7.43;2.25;;;11.90;99.90;;;;;;4976163;28;20136;-74
2022/05/08 08:06:10;;;;;;;8.50;2.13;;;11.90;99.90;;;;;;4945071;28;20041;-74
2022/05/08 08:08:36;;;;;;;9.05;2.25;;;12.00;99.90;;;;;;4979814;28;20117;-75
2022/05/08 08:11:04;;;;;;;10.38;2.25;;;12.10;99.90;;;;;;4982288;28;20050;-74
2022/05/08 08:13:31;;;;;;;12.00;2.00;;;12.20;99.90;;;;;;4977801;28;20475;-74
2022/05/08 08:15:59;;;;;;;8.85;2.78;;;12.20;99.90;;;;;;4973557;28;20593;-74
2022/05/08 08:18:26;;;;;;;10.48;2.45;;;12.30;99.90;;;;;;4969582;28;20104;-74
2022/05/08 08:20:52;;;;;;;10.90;3.00;;;12.30;99.90;;;;;;4985761;28;20341;-75
2022/05/08 08:23:17;;;;;;;10.05;2.00;;;12.40;99.90;;;;;;4967447;28;20132;-75
2022/05/08 08:25:44;;;;;;;9.88;2.13;;;12.50;99.90;;;;;;4947028;28;20045;-74
2022/05/08 08:28:10;;;;;;;11.70;2.65;;;12.50;99.90;;;;;;4971674;28;20045;-74
2022/05/08 08:30:36;;;;;;;7.97;1.88;;;12.60;99.90;;;;;;4963119;28;20058;-75
2022/05/08 08:33:05;;;;;;;9.20;2.35;;;12.80;99.90;;;;;;4966417;28;20064;-75
2022/05/08 08:35:31;;;;;;;10.65;2.22;;;13.00;99.90;;;;;;4952596;28;20045;-74
2022/05/08 08:37:57;;;;;;;10.38;2.00;;;13.10;99.60;;;;;;4964791;28;20045;-75
2022/05/08 08:40:23;;;;;;;9.60;2.22;;;13.10;99.90;;;;;;4962416;28;20544;-76
2022/05/08 08:42:50;;;;;;;9.65;2.30;;;13.10;99.90;;;;;;4966692;28;20409;-76
2022/05/08 08:48:05;;;;;;;8.35;2.33;;;13.30;99.90;;;;;;4979211;28;20046;-75
2022/05/08 08:50:33;;;;;;;11.55;2.80;;;13.30;99.90;;;;;;4986591;28;20049;-75
2022/05/08 08:53:01;;;;;;;8.75;2.30;;;13.40;99.90;;;;;;4966991;28;20096;-75
2022/05/08 08:55:27;;;;;;;11.23;2.75;;;13.60;99.90;;;;;;4977092;28;20701;-76
2022/05/08 08:57:53;;;;;;;8.85;3.05;;;13.70;96.40;;;;;;4985455;28;20137;-75
2022/05/08 09:00:21;;;;;;;9.13;1.85;;;13.60;97.60;;;;;;4964586;28;20381;-75
2022/05/08 09:02:48;;;;;;;8.73;2.08;;;13.60;98.20;;;;;;4980474;28;20050;-75
2022/05/08 09:05:14;;;;;;;9.90;2.38;;;13.60;96.00;;;;;;4981418;28;20060;-76
2022/05/08 09:07:42;;;;;;;5.97;1.92;;;13.60;97.10;;;;;;4963394;28;20246;-75
2022/05/08 09:10:13;;;;;;;7.85;2.58;;;13.50;97.40;;;;;;4960792;28;20518;-74
2022/05/08 09:12:42;;;;;;;10.13;2.15;;;13.50;96.50;;;;;;4980314;28;20080;-75
2022/05/08 09:15:28;;;;;;;9.38;2.05;;;13.50;96.70;;;;;;4968279;28;20046;-77
2022/05/08 09:18:11;;;;;;;8.45;2.15;;;13.50;96.00;;;;;;4963381;28;20042;-76
2022/05/08 09:20:40;;;;;;;11.35;2.40;;;13.70;94.00;;;;;;4962858;28;20050;-76
2022/05/08 09:23:19;;;;;;;10.20;2.03;;;13.80;94.20;;;;;;4966758;28;20147;-75
2022/05/08 09:26:04;;;;;;;9.75;1.83;;;13.90;95.20;;;;;;4964147;28;20400;-75
2022/05/08 09:28:36;;;;;;;10.32;2.05;;;14.00;95.10;;;;;;4967175;28;20088;-75
2022/05/08 09:31:22;;;;;;;13.00;2.63;;;14.30;94.70;;;;;;4975281;28;20441;-75
2022/05/08 09:33:51;;;;;;;11.18;2.40;;;14.50;93.50;;;;;;4961430;28;20073;-76
2022/05/08 09:36:19;;;;;;;10.48;2.70;;;14.50;91.70;;;;;;4984670;28;20046;-74
2022/05/08 09:38:51;;;;;;;8.23;2.20;;;14.50;91.80;;;;;;4981091;28;20054;-76
2022/05/08 09:41:23;;;;;;;6.88;2.10;;;14.50;91.60;;;;;;4969501;28;20042;-74
2022/05/08 09:43:50;;;;;;;8.65;1.88;;;14.40;90.00;;;;;;4982545;28;20108;-77
2022/05/08 09:46:17;;;;;;;10.15;2.33;;;14.30;91.30;;;;;;4972702;28;20074;-74
2022/05/08 09:48:43;;;;;;;7.60;1.90;;;14.40;91.30;;;;;;4940127;28;20049;-75
2022/05/08 09:51:11;;;;;;;14.50;3.55;;;14.50;89.90;;;;;;4977189;28;20046;-76
2022/05/08 09:53:39;;;;;;;55.88;5.20;;;14.60;89.10;;;;;;4979280;28;20125;-74
2022/05/08 09:56:07;;;;;;;8.45;2.00;;;14.70;87.70;;;;;;4961781;28;20524;-75
2022/05/08 09:58:33;;;;;;;7.88;2.50;;;14.70;88.40;;;;;;4981673;28;20050;-74
2022/05/08 10:00:59;;;;;;;9.38;2.10;;;14.90;90.30;;;;;;4984853;28;20101;-74
2022/05/08 10:03:26;;;;;;;9.75;2.63;;;15.00;87.20;;;;;;4984047;28;20046;-74
2022/05/08 10:05:53;;;;;;;8.52;2.05;;;15.10;85.30;;;;;;4982896;28;20099;-75
2022/05/08 10:08:26;;;;;;;9.50;2.17;;;15.10;89.20;;;;;;4976701;28;20060;-75
2022/05/08 10:14:05;;;;;;;12.70;4.68;;;15.30;90.00;;;;;;4982179;28;20046;-74
2022/05/08 10:17:06;;;;;;;12.85;6.13;;;15.30;86.60;;;;;;4977893;28;20042;-73
2022/05/08 10:19:32;;;;;;;9.05;2.17;;;15.40;85.00;;;;;;4967690;28;20049;-73
2022/05/08 10:22:06;;;;;;;11.15;2.60;;;15.50;85.50;;;;;;4976297;28;20062;-73
2022/05/08 10:24:36;;;;;;;9.77;2.15;;;15.30;81.20;;;;;;4966568;28;20042;-74
2022/05/08 10:27:17;;;;;;;10.38;2.28;;;15.20;83.90;;;;;;4959373;28;20043;-74
2022/05/08 10:29:43;;;;;;;11.68;2.30;;;15.30;83.40;;;;;;4967823;28;20105;-73
2022/05/08 10:32:10;;;;;;;10.77;2.45;;;15.40;86.90;;;;;;4960544;28;20058;-74
2022/05/08 10:34:39;;;;;;;9.27;2.30;;;15.50;79.00;;;;;;4967810;28;20428;-75
2022/05/08 10:37:13;;;;;;;9.23;2.28;;;15.50;79.70;;;;;;4982163;28;20050;-74
2022/05/08 10:39:42;;;;;;;9.45;1.95;;;15.50;76.50;;;;;;4954875;28;20054;-76
2022/05/08 10:42:32;;;;;;;12.73;2.55;;;15.60;80.60;;;;;;4960106;28;20399;-74
2022/05/08 10:45:01;;;;;;;12.43;2.95;;;15.90;82.80;;;;;;4973041;28;20523;-76
2022/05/08 10:47:34;;;;;;;11.07;2.58;;;16.10;75.30;;;;;;4984607;28;20049;-74
2022/05/08 10:50:02;;;;;;;7.38;2.63;;;15.80;72.10;;;;;;4973453;28;20047;-76
2022/05/08 10:52:30;;;;;;;10.95;3.45;;;15.80;77.80;;;;;;4967683;28;20109;-74
2022/05/08 10:54:56;;;;;;;17.70;7.38;;;15.90;77.80;;;;;;4971270;28;20039;-75
2022/05/08 10:57:35;;;;;;;8.88;2.67;;;15.90;72.00;;;;;;4979080;28;20055;-75
2022/05/08 11:00:05;;;;;;;6.78;1.85;;;15.80;73.30;;;;;;4983412;28;20054;-75
2022/05/08 11:02:51;;;;;;;11.00;4.78;;;15.80;74.50;;;;;;4984096;28;20415;-75
2022/05/08 11:05:37;;;;;;;9.38;2.00;;;16.00;76.00;;;;;;4964059;28;20512;-75
2022/05/08 11:08:11;;;;;;;7.88;2.22;;;16.20;71.50;;;;;;4965802;28;20039;-74
2022/05/08 11:10:41;;;;;;;9.68;2.53;;;16.20;68.00;;;;;;4977041;28;21014;-75
2022/05/08 11:13:09;;;;;;;9.38;2.50;;;16.10;70.30;;;;;;4974633;28;20042;-75
2022/05/08 11:15:48;;;;;;;8.35;2.10;;;16.10;70.40;;;;;;4979361;28;20049;-74
2022/05/08 11:18:26;;;;;;;10.23;2.53;;;16.10;72.30;;;;;;4974461;28;20034;-75
2022/05/08 11:21:02;;;;;;;16.08;3.40;;;16.20;73.20;;;;;;4952295;28;20049;-74
2022/05/08 11:23:35;;;;;;;7.95;2.10;;;16.30;74.30;;;;;;4974706;28;20121;-76
2022/05/08 11:26:05;;;;;;;11.18;2.42;;;16.40;72.50;;;;;;4976500;28;20038;-75
2022/05/08 11:28:32;;;;;;;10.20;3.08;;;16.70;69.60;;;;;;4991387;28;20047;-76
2022/05/08 11:30:59;;;;;;;10.68;2.45;;;16.70;69.10;;;;;;4940917;28;20501;-76
2022/05/08 11:36:28;;;;;;;10.05;2.38;;;16.80;65.80;;;;;;4965518;28;20556;-75
2022/05/08 11:39:04;;;;;;;7.05;1.77;;;16.80;68.60;;;;;;4946015;28;20120;-75
2022/05/08 11:41:37;;;;;;;10.25;2.03;;;16.90;67.40;;;;;;4978513;28;20050;-75
2022/05/08 11:44:16;;;;;;;8.23;2.00;;;16.80;62.90;;;;;;4979159;28;20100;-75
2022/05/08 11:46:55;;;;;;;6.03;1.98;;;16.80;65.60;;;;;;4975827;28;20125;-75
2022/05/08 11:49:25;;;;;;;7.75;2.00;;;16.90;63.70;;;;;;4976643;28;20266;-75
2022/05/08 11:51:56;;;;;;;6.88;1.95;;;16.90;62.30;;;;;;4938387;28;20055;-77
2022/05/08 11:54:35;;;;;;;11.25;2.35;;;16.90;63.20;;;;;;4969916;28;20537;-75
2022/05/08 11:57:19;;;;;;;10.13;2.30;;;17.00;61.50;;;;;;4967547;28;20564;-75
2022/05/08 12:00:06;;;;;;;9.23;2.50;;;17.00;62.70;;;;;;4966422;28;20173;-75
2022/05/08 12:02:40;;;;;;;7.97;2.42;;;16.90;62.00;;;;;;4966742;28;20285;-76
2022/05/08 12:05:15;;;;;;;8.65;2.30;;;16.80;61.40;;;;;;4947585;28;20123;-76
2022/05/08 12:07:42;;;;;;;8.20;2.60;;;16.70;62.50;;;;;;4976147;28;20706;-76
2022/05/08 12:10:10;;;;;;;7.63;2.20;;;16.70;60.00;;;;;;4966509;28;20330;-77
2022/05/08 12:12:38;;;;;;;8.40;2.08;;;16.70;59.40;;;;;;4974731;28;20051;-76
2022/05/08 12:15:07;;;;;;;6.13;1.77;;;16.70;58.10;;;;;;4954426;28;20051;-76
2022/05/08 12:17:47;;;;;;;8.07;2.10;;;16.70;57.30;;;;;;4969352;28;20505;-76
2022/05/08 12:20:18;;;;;;;8.50;2.10;;;16.70;58.10;;;;;;4963375;28;20080;-75
2022/05/08 12:22:44;;;;;;;10.38;2.53;;;16.70;58.10;;;;;;4977257;28;20178;-76
2022/05/08 12:25:12;;;;;;;8.25;1.98;;;16.70;59.20;;;;;;4982701;28;20049;-75
2022/05/08 12:27:39;;;;;;;9.90;2.60;;;16.70;58.40;;;;;;4972618;28;20113;-75
2022/05/08 12:30:06;;;;;;;6.75;1.90;;;16.80;58.80;;;;;;4976614;28;20150;-75
2022/05/08 12:32:35;;;;;;;11.45;2.03;;;16.80;58.10;;;;;;4968693;28;20049;-75
2022/05/08 12:35:01;;;;;;;11.87;2.97;;;16.90;57.10;;;;;;4979795;28;20058;-75
2022/05/08 12:37:27;;;;;;;8.00;2.05;;;17.00;56.80;;;;;;4985233;28;20042;-75
2022/05/08 12:39:53;;;;;;;9.82;2.17;;;17.10;55.60;;;;;;4945243;28;20152;-74
2022/05/08 12:42:19;;;;;;;10.25;2.10;;;17.20;56.80;;;;;;4969122;28;20505;-75
2022/05/08 12:44:48;;;;;;;10.20;2.15;;;17.20;56.50;;;;;;4963105;28;20360;-75
2022/05/08 12:47:15;;;;;;;11.10;2.10;;;17.10;56.70;;;;;;4968797;28;20038;-75
2022/05/08 12:49:42;;;;;;;9.48;2.58;;;17.20;57.40;;;;;;4959834;28;20061;-76
2022/05/08 12:52:09;;;;;;;8.65;2.42;;;17.10;57.90;;;;;;4963935;28;20058;-75
2022/05/08 12:54:35;;;;;;;7.85;2.10;;;17.10;58.30;;;;;;4962382;28;20081;-76
2022/05/08 12:57:02;;;;;;;9.13;2.38;;;17.10;57.50;;;;;;4985419;28;20049;-76
2022/05/08 13:02:15;;;;;;;6.80;1.90;;;17.30;51.70;;;;;;4970910;28;20054;-75
2022/05/08 13:04:42;;;;;;;8.48;1.95;;;17.00;53.60;;;;;;4964609;28;20136;-76
2022/05/08 13:07:09;;;;;;;7.97;1.90;;;17.10;54.20;;;;;;4983985;28;20458;-75
2022/05/08 13:09:35;;;;;;;8.82;2.15;;;17.30;55.20;;;;;;4982116;28;20413;-74
2022/05/08 13:12:03;;;;;;;9.52;2.20;;;17.50;54.70;;;;;;4967933;28;20513;-75
2022/05/08 13:14:30;;;;;;;7.53;2.67;;;17.60;52.60;;;;;;4968843;28;20104;-74
2022/05/08 13:17:00;;;;;;;9.57;2.38;;;17.50;50.80;;;;;;4968198;28;20046;-76